Latest Weather Observations for Coolangatta

IDQ60901

Issued at 11:21 am EST Saturday 23 May 2015 (issued every 10 minutes, with the page automatically refreshed every 10 minutes)

About weather observations | Map of Brisbane area stations | Latest observations for Brisbane area | Other Formats
Station Details ID: 040717 Name: COOLANGATTA Lat: -28.17 Lon: 153.51 Height: 4.0 m
Data from the previous 72 hours. | See also: Recent months at Coolangatta
Date/Time
EST
Tmp

°C
App
Tmp
°C
Dew
Point
°C
Rel
Hum
%
Delta-T

°C
Wind Press
QNH
hPa
Press
MSL
hPa
Rain
since
9 am
mm
Dir
 
Spd
km/h
Gust
km/h
Spd
kts
Gust
kts
23/11:09am 20.2 14.5 11.1 56 5.0 S 32 50 17 27 1023.4 1023.4 0.0
23/11:00am 20.6 14.8 11.5 56 5.0 S 33 48 18 26 1023.3 1023.3 0.0
23/10:31am 20.3 14.3 10.7 54 5.2 S 33 52 18 28 1023.2 1023.2 0.0
23/10:30am 20.3 14.2 10.4 53 5.4 S 33 50 18 27 1023.1 1023.1 0.0
23/10:03am 19.6 13.5 10.6 56 4.9 S 33 52 18 28 1022.9 1022.9 0.0
23/10:00am 19.5 13.6 11.3 59 4.5 S 33 50 18 27 1022.9 1022.9 0.0
23/09:34am 19.2 13.7 11.7 62 4.1 S 32 50 17 27 1022.7 1022.7 0.0
23/09:30am 19.0 13.1 11.3 61 4.2 S 33 50 18 27 1022.6 1022.6 0.0
23/09:00am 18.5 12.4 10.6 60 4.2 S 33 46 18 25 1022.6 1022.6 0.0
23/08:30am 18.3 13.7 10.9 62 4.0 SSW 26 39 14 21 1022.5 1022.5 0.0
23/08:00am 17.1 12.6 10.2 64 3.6 SSW 24 35 13 19 1022.4 1022.4 0.0
23/07:30am 16.7 12.6 10.1 65 3.5 SSW 22 30 12 16 1022.0 1022.0 0.0
23/07:00am 16.5 12.3 9.9 65 3.4 SW 22 35 12 19 1021.4 1021.4 0.0
23/06:30am 16.4 12.7 10.0 66 3.4 SSW 20 32 11 17 1021.1 1021.1 0.0
23/05:30am 16.5 12.9 9.9 65 3.5 SSW 19 30 10 16 1020.2 1020.2 0.0
23/05:00am 16.3 13.0 9.7 65 3.4 SW 17 26 9 14 1020.1 1020.1 0.0
23/04:30am 16.3 13.1 9.9 66 3.4 SW 17 24 9 13 1019.7 1019.7 0.0
23/04:00am 16.5 12.3 9.9 65 3.5 SSW 22 32 12 17 1019.6 1019.6 0.0
23/03:30am 16.4 12.8 9.8 65 3.5 SSW 19 28 10 15 1019.5 1019.5 0.0
23/03:00am 17.1 12.6 10.2 64 3.6 SSW 24 39 13 21 1019.3 1019.3 0.0
23/02:30am 16.9 12.0 9.8 63 3.7 SSW 26 35 14 19 1019.1 1019.1 0.0
23/02:00am 17.1 11.5 10.0 63 3.7 SSW 30 48 16 26 1019.0 1019.0 0.0
23/01:30am 17.4 11.8 10.1 62 3.9 SSW 30 52 16 28 1018.7 1018.7 0.0
23/01:00am 17.6 11.6 10.0 61 4.0 SSW 32 61 17 33 1018.6 1018.6 0.0
23/12:30am 17.4 12.2 10.3 63 3.8 SSW 28 48 15 26 1018.3 1018.3 0.0
23/12:29am 17.4 12.2 10.3 63 3.8 SSW 28 48 15 26 1018.4 1018.4 0.0
23/12:00am 17.5 12.3 10.1 62 3.9 SSW 28 44 15 24 1018.3 1018.3 0.0
 
Date/Time
EST
Tmp

°C
App
Tmp
°C
Dew
Point
°C
Rel
Hum
%
Delta-T

°C
Wind Press
QNH
hPa
Press
MSL
hPa
Rain
since
9 am
mm
Dir
 
Spd
km/h
Gust
km/h
Spd
kts
Gust
kts
22/11:44pm 17.6 12.4 10.2 62 3.9 SSW 28 46 15 25 1018.3 1018.3 0.0
22/11:30pm 17.6 13.5 10.2 62 3.9 SSW 22 35 12 19 1018.5 1018.5 0.0
22/11:00pm 17.9 13.2 9.3 57 4.5 SSW 24 39 13 21 1018.2 1018.2 0.0
22/10:30pm 17.9 14.4 8.7 55 4.8 SSW 17 30 9 16 1018.3 1018.3 0.0
22/10:00pm 17.7 14.1 8.3 54 4.8 SSW 17 32 9 17 1018.2 1018.2 0.0
22/09:30pm 16.8 13.2 8.5 58 4.2 SSW 17 24 9 13 1017.8 1017.8 0.0
22/09:00pm 14.0 12.6 8.8 71 2.6 W 6 9 3 5 1017.7 1017.7 0.0
22/08:30pm 14.5 12.7 8.0 65 3.2 W 7 13 4 7 1017.5 1017.5 0.0
22/08:00pm 14.7 13.2 9.1 69 2.9 WSW 7 15 4 8 1017.1 1017.1 0.0
22/07:30pm 15.5 12.7 8.7 64 3.5 WSW 13 22 7 12 1016.8 1016.8 0.0
22/07:00pm 15.5 13.9 8.0 61 3.8 W 6 13 3 7 1016.6 1016.6 0.0
22/06:30pm 15.1 12.8 7.6 61 3.7 W 9 15 5 8 1016.0 1016.0 0.0
22/06:00pm 15.1 12.5 7.6 61 3.7 WNW 11 15 6 8 1015.7 1015.7 0.0
22/05:30pm 16.0 13.7 7.5 57 4.2 W 9 13 5 7 1015.3 1015.3 0.0
22/05:00pm 16.8 15.1 8.2 57 4.4 W 7 13 4 7 1014.8 1014.8 0.0
22/04:30pm 18.4 15.4 7.5 49 5.5 W 13 26 7 14 1014.5 1014.5 0.0
22/04:00pm 19.3 14.9 7.4 46 6.0 SW 20 32 11 17 1014.4 1014.4 0.0
22/03:30pm 19.8 16.0 7.5 45 6.3 SW 17 24 9 13 1014.1 1014.1 0.0
22/03:00pm 20.5 16.9 8.2 45 6.4 SW 17 26 9 14 1014.0 1014.0 0.0
22/02:30pm 20.5 17.2 8.2 45 6.4 WSW 15 24 8 13 1013.8 1013.8 0.0
22/02:00pm 19.0 16.3 7.4 47 5.9 S 11 19 6 10 1013.8 1013.8 0.0
22/01:30pm 20.5 16.8 7.8 44 6.6 SSW 17 28 9 15 1013.8 1013.8 0.0
22/01:00pm 20.6 17.7 8.3 45 6.4 WSW 13 22 7 12 1013.8 1013.8 0.0
22/12:30pm 20.5 17.7 8.5 46 6.3 SW 13 20 7 11 1014.1 1014.1 0.0
22/12:00pm 20.3 17.8 8.3 46 6.2 W 11 17 6 9 1014.5 1014.5 0.0
22/11:30am 20.2 16.9 8.2 46 6.2 SW 15 20 8 11 1014.8 1014.8 0.0
22/11:00am 19.8 17.1 8.8 49 5.8 WNW 13 20 7 11 1015.0 1015.0 0.0
22/10:30am 19.8 16.5 9.7 52 5.4 WNW 17 24 9 13 1015.4 1015.4 0.0
22/10:00am 19.3 15.7 10.0 55 5.0 WNW 19 26 10 14 1015.6 1015.6 0.0
22/09:30am 19.0 16.4 10.6 58 4.5 WNW 15 24 8 13 1015.7 1015.7 0.0
22/09:00am 18.3 14.5 11.1 63 3.9 NW 22 33 12 18 1015.4 1015.4 9.6
22/08:30am 17.5 15.8 12.6 73 2.7 WNW 13 19 7 10 1015.2 1015.2 9.6
22/08:00am 16.0 17.2 13.7 86 1.3 CALM 0 0 0 0 1015.2 1015.2 9.6
22/07:30am 15.4 15.7 14.9 97 0.3 SSW 7 11 4 6 1015.2 1015.2 9.6
22/07:25am 15.0 14.7 14.5 97 0.3 SW 9 13 5 7 1015.3 1015.3 9.6
22/07:00am 13.5 14.3 12.7 95 0.4 CALM 0 0 0 0 1015.0 1015.0 9.6
22/06:49am 14.0 15.1 13.4 96 0.3 CALM 0 0 0 0 1015.2 1015.2 9.6
22/06:30am 14.0 14.6 13.2 95 0.4 E 2 6 1 3 1015.2 1015.2 9.6
22/06:00am 14.6 14.6 13.6 94 0.6 WSW 6 7 3 4 1014.9 1014.9 9.6
22/05:30am 15.4 15.6 14.8 96 0.3 SW 7 9 4 5 1014.5 1014.5 9.6
22/05:00am 15.5 15.4 15.0 97 0.3 SW 9 13 5 7 1014.7 1014.7 9.6
22/04:30am 15.0 16.0 14.2 95 0.5 WNW 2 9 1 5 1014.7 1014.7 9.6
22/04:00am 15.4 15.6 14.6 95 0.5 W 7 9 4 5 1014.4 1014.4 9.6
22/03:30am 15.7 15.6 14.9 95 0.5 W 9 11 5 6 1014.6 1014.6 9.6
22/03:00am 16.1 16.5 15.3 95 0.5 WSW 7 9 4 5 1014.7 1014.7 9.6
22/02:30am 16.1 16.6 15.1 94 0.6 NW 6 7 3 4 1014.9 1014.9 9.6
22/02:00am 16.3 17.0 15.5 95 0.5 W 6 7 3 4 1015.0 1015.0 9.6
22/01:30am 16.4 18.2 15.6 95 0.5 CALM 0 0 0 0 1015.2 1015.2 9.6
22/01:00am 16.5 17.2 15.7 95 0.5 W 6 7 3 4 1015.7 1015.7 9.6
22/12:30am 16.4 16.9 15.6 95 0.5 NW 7 9 4 5 1016.2 1016.2 9.6
22/12:00am 16.4 17.0 15.4 94 0.6 WNW 6 9 3 5 1016.3 1016.3 9.4
 
Date/Time
EST
Tmp

°C
App
Tmp
°C
Dew
Point
°C
Rel
Hum
%
Delta-T

°C
Wind Press
QNH
hPa
Press
MSL
hPa
Rain
since
9 am
mm
Dir
 
Spd
km/h
Gust
km/h
Spd
kts
Gust
kts
21/11:30pm 16.5 17.0 15.5 94 0.6 NW 7 11 4 6 1016.5 1016.5 9.4
21/11:00pm 16.5 16.8 15.9 96 0.4 NW 9 13 5 7 1016.7 1016.7 9.4
21/10:30pm 16.3 17.0 15.7 96 0.4 W 6 7 3 4 1016.9 1016.9 9.2
21/10:00pm 16.4 16.2 15.8 96 0.4 WSW 11 13 6 7 1017.4 1017.4 9.2
21/09:30pm 16.6 17.3 16.0 96 0.4 WSW 7 9 4 5 1017.1 1017.1 9.0
21/09:02pm 16.5 18.0 15.7 95 0.5 NW 2 7 1 4 1017.2 1017.2 8.8
21/09:00pm 16.5 17.6 15.7 95 0.5 NW 4 9 2 5 1017.2 1017.2 8.8
21/08:31pm 16.5 17.2 15.7 95 0.5 WNW 6 7 3 4 1017.4 1017.4 7.8
21/08:30pm 16.5 17.2 15.7 95 0.5 WNW 6 7 3 4 1017.5 1017.5 7.6
21/08:25pm 16.6 17.2 15.8 95 0.5 WNW 7 7 4 4 1017.5 1017.5 7.4
21/08:08pm 16.7 18.3 15.9 95 0.5 SW 2 7 1 4 1017.5 1017.5 6.8
21/08:00pm 16.7 17.5 15.9 95 0.5 WSW 6 7 3 4 1017.6 1017.6 6.4
21/07:30pm 16.6 17.1 15.6 94 0.6 WSW 7 11 4 6 1017.6 1017.6 5.8
21/07:00pm 16.8 17.5 16.0 95 0.5 WSW 7 9 4 5 1017.5 1017.5 5.8
21/06:30pm 16.7 17.8 15.7 94 0.6 SSW 4 7 2 4 1016.9 1016.9 5.8
21/06:00pm 16.6 17.1 15.6 94 0.6 S 7 11 4 6 1016.9 1016.9 5.6
21/05:30pm 16.5 16.2 15.5 94 0.6 S 11 15 6 8 1016.9 1016.9 5.6
21/05:20pm 16.5 15.8 15.5 94 0.6 SSE 13 17 7 9 1017.0 1017.0 5.6
21/05:00pm 16.5 15.4 15.2 92 0.8 S 15 22 8 12 1017.1 1017.1 5.0
21/04:41pm 17.2 15.1 15.2 88 1.2 S 20 30 11 16 1017.0 1017.0 0.8
21/04:30pm 17.8 15.7 15.2 85 1.5 SSW 20 28 11 15 1016.9 1016.9 0.2
21/04:00pm 19.1 17.0 14.8 76 2.5 S 19 28 10 15 1016.2 1016.2 0.0
21/03:30pm 19.6 18.2 15.5 77 2.4 S 17 24 9 13 1016.2 1016.2 0.0
21/03:00pm 20.4 19.6 16.0 76 2.6 S 15 20 8 11 1015.9 1015.9 0.0
21/02:30pm 20.4 18.7 15.8 75 2.7 SSE 19 24 10 13 1015.9 1015.9 0.0
21/02:18pm 21.1 20.0 17.3 79 2.3 SE 19 26 10 14 1015.8 1015.8 0.0
21/02:02pm 21.4 20.6 18.0 81 2.1 SE 19 24 10 13 1015.6 1015.6 0.0
21/02:00pm 21.6 20.9 18.2 81 2.1 SE 19 24 10 13 1015.5 1015.5 0.0
21/01:30pm 22.5 21.5 17.6 74 3.0 SE 19 24 10 13 1015.7 1015.7 0.0
21/01:00pm 22.7 21.6 17.4 72 3.3 SE 19 22 10 12 1015.9 1015.9 0.0
21/12:30pm 23.6 25.0 18.7 74 3.1 E 9 11 5 6 1016.3 1016.3 0.0
21/12:00pm 22.8 23.9 18.1 75 2.9 NNE 9 13 5 7 1016.9 1016.9 0.0
21/11:30am 23.3 23.7 18.2 73 3.2 NNE 13 17 7 9 1017.3 1017.3 0.0
21/11:00am 22.6 23.4 19.0 80 2.3 NNE 13 17 7 9 1017.7 1017.7 0.0
21/10:30am 22.5 22.4 18.7 79 2.4 NNE 17 20 9 11 1018.0 1018.0 0.0
21/10:00am 23.3 23.9 17.7 71 3.5 NNW 11 15 6 8 1018.1 1018.1 0.0
21/09:30am 22.6 23.6 18.6 78 2.5 NW 11 15 6 8 1018.4 1018.4 0.0
21/09:00am 21.0 22.6 18.2 84 1.7 NW 7 9 4 5 1018.2 1018.2 0.0
21/08:30am 20.1 21.6 18.0 88 1.3 NNW 7 11 4 6 1018.2 1018.2 0.0
21/08:00am 19.7 20.7 17.7 88 1.2 NNW 9 13 5 7 1018.2 1018.2 0.0
21/07:30am 19.8 20.6 18.1 90 1.1 NNW 11 15 6 8 1018.1 1018.1 0.0
21/07:00am 19.7 19.7 18.0 90 1.0 NNW 15 19 8 10 1017.8 1017.8 0.0
21/06:30am 19.7 20.3 18.5 93 0.7 N 13 17 7 9 1017.5 1017.5 0.0
21/06:00am 19.4 20.6 18.2 93 0.7 N 9 13 5 7 1017.0 1017.0 0.0
21/05:30am 19.4 20.2 18.2 93 0.7 NNW 11 15 6 8 1017.0 1017.0 0.0
21/05:00am 19.1 20.2 18.1 94 0.6 N 9 11 5 6 1017.0 1017.0 0.0
21/04:30am 19.3 20.2 18.3 94 0.6 NNW 11 13 6 7 1017.0 1017.0 0.0
21/04:00am 19.5 20.4 18.3 93 0.7 NNW 11 17 6 9 1017.2 1017.2 0.0
21/03:45am 19.7 20.3 18.5 93 0.7 NNW 13 17 7 9 1017.2 1017.2 0.0
21/03:30am 19.6 20.1 18.3 92 0.8 NW 13 19 7 10 1017.2 1017.2 0.0
21/03:13am 19.8 20.4 18.5 92 0.8 NW 13 20 7 11 1017.1 1017.1 0.0
21/03:00am 19.5 19.8 18.0 91 0.9 NW 13 20 7 11 1017.2 1017.2 0.0
21/02:30am 19.8 20.2 18.1 90 1.1 NNW 13 19 7 10 1017.3 1017.3 0.0
21/02:00am 19.4 20.3 17.5 89 1.2 NW 9 17 5 9 1017.5 1017.5 0.0
21/01:30am 19.8 20.1 17.9 89 1.2 NNW 13 19 7 10 1017.8 1017.8 0.0
21/01:00am 19.0 19.7 17.1 89 1.1 NNW 9 9 5 5 1018.0 1018.0 0.0
21/12:30am 18.9 19.1 16.7 87 1.3 N 11 13 6 7 1018.0 1018.0 0.0
21/12:00am 19.3 19.9 16.7 85 1.6 N 9 11 5 6 1018.3 1018.3 0.0
 
Date/Time
EST
Tmp

°C
App
Tmp
°C
Dew
Point
°C
Rel
Hum
%
Delta-T

°C
Wind Press
QNH
hPa
Press
MSL
hPa
Rain
since
9 am
mm
Dir
 
Spd
km/h
Gust
km/h
Spd
kts
Gust
kts
20/11:30pm 20.2 20.3 17.4 84 1.7 NNW 13 17 7 9 1018.4 1018.4 0.0
20/11:00pm 20.0 20.0 17.2 84 1.7 NNW 13 15 7 8 1018.2 1018.2 0.0
20/10:30pm 20.1 21.5 17.3 84 1.7 NNW 6 11 3 6 1018.7 1018.7 0.0
20/10:00pm 20.2 20.1 17.8 86 1.5 N 15 19 8 10 1018.6 1018.6 0.0
20/09:30pm 20.3 20.5 17.7 85 1.6 NNW 13 15 7 8 1018.6 1018.6 0.0
20/09:00pm 19.8 20.2 17.2 85 1.6 N 11 13 6 7 1018.8 1018.8 0.0
20/08:30pm 20.3 21.0 17.1 82 1.9 N 9 11 5 6 1018.6 1018.6 0.0
20/08:00pm 20.9 21.3 17.3 80 2.2 NW 11 15 6 8 1018.1 1018.1 0.0
20/07:30pm 21.1 21.9 17.3 79 2.3 NNW 9 13 5 7 1018.2 1018.2 0.0
20/07:00pm 21.5 21.7 17.7 79 2.3 NNW 13 19 7 10 1018.0 1018.0 0.0
20/06:30pm 21.7 22.1 19.1 85 1.6 NNW 15 19 8 10 1017.8 1017.8 0.0
20/06:00pm 21.9 22.3 19.1 84 1.8 NNW 15 20 8 11 1017.7 1017.7 0.0
20/05:30pm 22.0 21.6 19.0 83 1.9 N 19 24 10 13 1017.4 1017.4 0.0
20/05:00pm 22.1 21.6 18.7 81 2.1 N 19 24 10 13 1017.5 1017.5 0.0
20/04:30pm 22.5 22.3 19.3 82 2.0 N 19 24 10 13 1017.3 1017.3 0.0
20/04:00pm 23.4 22.7 18.3 73 3.2 NNE 19 24 10 13 1017.1 1017.1 0.0
20/03:30pm 23.6 23.7 19.1 76 2.9 N 17 20 9 11 1017.0 1017.0 0.0
20/03:00pm 23.4 22.5 17.8 71 3.5 N 19 22 10 12 1017.0 1017.0 0.0
20/02:30pm 24.0 23.3 18.2 70 3.6 N 19 24 10 13 1017.0 1017.0 0.0
20/02:00pm 23.8 22.7 17.8 69 3.7 N 20 24 11 13 1017.3 1017.3 0.0
20/01:30pm 24.6 23.7 17.8 66 4.3 N 19 26 10 14 1017.5 1017.5 0.0
20/01:00pm 23.2 22.2 17.9 72 3.3 N 20 28 11 15 1017.6 1017.6 0.0
20/12:30pm 23.8 23.1 18.2 71 3.5 N 19 24 10 13 1017.8 1017.8 0.0
20/12:00pm 25.0 24.8 17.7 64 4.6 NNW 15 20 8 11 1018.3 1018.3 0.0
20/11:30am 24.8 24.1 17.3 63 4.7 NNW 17 22 9 12 1018.6 1018.6 0.0

Latest Capital City Observations: Canberra | Sydney | Melbourne | Brisbane | Adelaide | Perth | Hobart | Darwin

Other Formats:

Comma delimited format used in spreadsheet applications
http://www.bom.gov.au/fwo/IDQ60901/IDQ60901.94592.axf

JavaScript Object Notation format (JSON) in row-major order
http://www.bom.gov.au/fwo/IDQ60901/IDQ60901.94592.json